Weather observations for the past three days for
Langley Air Force Base
Imperial (Metric)
Date Time (edt) Wind (mph) Vis. (mi.) Weather Sky Cond. Temperature (ºF) Relative Humidity Wind Chill (°F) Heat Index (°F) Pressure Precipitation (in)
Air Dwpt 6 hour altimeter (in) sea level (mb) 1 hr 3 hr 6 hr
Max. Min.
04 23:55 S 17 G 23 10.00 Fair CLR 66.7 49.6 54% 29.95 1014.8
04 22:55 S 17 G 24 10.00 Fair CLR 68 50.7 54% 29.94 1014.5
04 21:55 S 17 10.00 A Few Clouds FEW130 69.1 52.2 55% 29.93 1014.2
04 20:55 S 13 10.00 Fair CLR 70.3 51.3 51% 29.92 1013.8
04 19:55 SW 9 10.00 Fair CLR 74.1 40.6 79.2 74.1 30% 29.89 1012.8
04 18:55 SW 12 10.00 Fair CLR 76.8 41.2 28% 77 29.88 1012.5
04 17:55 SW 14 9.00 Fair CLR 77.9 39.2 25% 78 29.88 1012.5
04 16:55 S 15 G 21 9.00 Fair CLR 78.4 39.7 25% 78 29.88 1012.5
04 15:55 SW 12 G 22 10.00 Fair CLR 77.9 40.3 26% 78 29.9 1013.1
04 14:55 W 15 10.00 A Few Clouds FEW190 FEW220 77.2 42.4 29% 78 29.93 1014.2
04 13:55 SW 16 10.00 A Few Clouds FEW200 75 42.3 76.6 58.3 31% 77 29.94 1014.5
04 12:55 W 15 10.00 Fair CLR 74.8 43 32% 29.96 1015.2
04 11:55 W 13 10.00 Fair CLR 72.3 44.6 37% 29.98 1015.9
04 10:55 W 16 10.00 Fair CLR 69.8 44.4 40% 29.99 1016.2
04 09:55 SW 17 10.00 Fair CLR 66.4 45 46% 30 1016.5
04 08:55 SW 12 10.00 Fair CLR 62.4 45.5 54% 30 1016.5
04 07:55 S 12 10.00 Fair CLR 58.1 44.8 58.1 53.1 61% 30.02 1017.2
04 06:55 S 8 10.00 Partly Cloudy SCT120 55.2 42.4 62% 30.02 1017.2
04 05:55 S 6 10.00 Mostly Cloudy BKN120 54.3 42.1 63% 30.02 1017.2
04 04:55 S 9 10.00 Overcast OVC130 54.9 44.1 67% 30.03 1017.6
04 03:55 S 13 10.00 Overcast OVC110 54.3 45.5 72% 30.04 1017.9
04 02:55 S 10 10.00 Overcast OVC120 54 45.1 72% 30.04 1017.9
04 01:55 S 12 10.00 Mostly Cloudy BKN130 53.2 43.7 58.8 47.7 70% 30.04 1017.9
04 00:55 S 10 10.00 Fair CLR 53.2 43.7 70% 30.05 1018.2
03 23:55 S 12 10.00 Fair CLR 53.2 41.7 65% 30.04 1017.9
03 22:55 S 9 10.00 Fair CLR 52.7 39.6 61% 30.04 1017.9
03 21:55 Calm 10.00 Fair CLR 49.1 34.2 57% 30.04 1017.9
03 20:55 S 3 10.00 Fair CLR 53.2 37.4 55% 30.02 1017.2
03 19:55 W 5 10.00 Fair CLR 58.8 28.2 63.3 58.8 31% 30 1016.5
03 18:55 NW 9 10.00 Fair CLR 61.5 28 28% 29.99 1016.2
03 17:55 W 10 10.00 Fair CLR 63.1 25.7 24% 29.99 1016.2
03 16:55 W 8 10.00 Fair CLR 63.1 26.8 25% 29.99 1016.2
03 15:55 W 13 G 21 10.00 Fair CLR 62.4 27.1 26% 30 1016.5
03 14:55 W 8 G 18 10.00 Fair CLR 62.1 25.9 25% 30.01 1016.9
03 13:55 W 17 G 21 10.00 Fair CLR 60.6 26.4 60.6 50.9 27% 30.02 1017.2
03 12:55 W 14 G 24 10.00 Fair CLR 58.6 24.8 27% 30.04 1017.9
03 11:55 W 10 G 21 10.00 Fair CLR 57.2 24.4 28% 30.05 1018.2
03 10:55 NW 16 G 22 10.00 Fair CLR 55.6 25.3 31% 30.05 1018.2
03 09:55 NW 15 G 21 10.00 Fair CLR 54.7 28.2 36% 30.04 1017.9
03 08:55 NW 15 G 21 10.00 Fair CLR 52.7 30.2 42% 30.04 1017.9
03 07:55 NW 15 G 22 10.00 Fair CLR 50.7 30.7 52.5 48 46% 30.01 1016.9
03 06:55 NW 13 10.00 Overcast OVC070 50.4 28.2 42% 30 1016.5
03 05:55 NW 14 10.00 Overcast OVC080 50.5 30 45% 29.96 1015.2
03 04:55 NW 8 10.00 Overcast OVC090 51.4 35.8 55% 29.94 1014.5
03 03:55 N 12 G 18 10.00 Overcast BKN075 OVC100 52.5 36.3 54% 29.92 1013.8
03 02:55 NW 7 10.00 Overcast OVC090 50 38.7 65% 48 29.9 1013.2
03 01:55 NW 6 10.00 Partly Cloudy SCT080 47.8 38.8 55.9 47.5 71% 46 29.89 1012.8
03 00:55 NW 5 10.00 Fair CLR 49.6 38.7 66% 48 29.89 1012.8
02 23:55 W 6 10.00 Partly Cloudy SCT140 50.9 38.8 64% 29.9 1013.2
02 22:55 W 5 10.00 Mostly Cloudy BKN140 52.2 39.9 63% 29.89 1012.8
02 21:55 W 6 10.00 Overcast FEW090 OVC130 53.2 38.8 58% 29.89 1012.8
02 20:55 N 7 10.00 Partly Cloudy SCT080 53.8 38.5 56% 29.88 1012.5
02 19:55 N 8 10.00 Overcast OVC075 55.9 33.8 60.1 55.8 43% 29.86 1011.8
02 18:55 N 13 10.00 Mostly Cloudy BKN075 56.5 28.4 34% 29.86 1011.8
02 17:55 N 12 10.00 Partly Cloudy SCT100 57.4 35.1 43% 29.86 1011.8
02 16:55 N 13 10.00 Partly Cloudy SCT100 58.3 34 40% 29.85 1011.5
02 15:55 NE 13 10.00 Mostly Cloudy SCT065 BKN190 58.6 39.6 49% 29.85 1011.5
02 14:55 NE 14 10.00 Partly Cloudy FEW100 SCT140 SCT160 60.1 42.8 53% 29.86 1011.8
02 13:55 N 9 10.00 Light Drizzle SCT034 SCT047 56.5 43.7 58.6 54.3 62% 29.9 1013.2 0.01
02 12:55 N 9 10.00 Light Drizzle SCT029 SCT041 BKN050 55.8 43.7 64% 29.92 1013.8
02 11:55 N 14 10.00 Light Drizzle FEW038 OVC050 55.9 47.1 72% 29.93 1014.2 0.01
02 10:55 N 14 10.00 Light Rain FEW030 OVC060 55.6 44.8 67% 29.94 1014.5
02 09:55 N 15 10.00 A Few Clouds FEW028 58.3 44.1 59% 29.9 1013.2
02 08:55 N 17 10.00 Fair CLR 57.7 47.7 69% 29.89 1012.8
02 07:55 N 9 10.00 Fair CLR 56.8 46.4 56.8 54.3 68% 29.9 1013.2
02 06:55 N 7 10.00 Fair CLR 55 48.6 79% 29.9 1013.2
02 05:55 N 7 10.00 Partly Cloudy FEW140 SCT160 54.9 49.8 83% 29.89 1012.8
02 04:55 NW 6 10.00 Partly Cloudy FEW036 SCT170 54.7 48.9 81% 29.87 1012.1
02 03:55 Calm 10.00 Mostly Cloudy FEW030 BKN037 BKN170 55.4 48.4 77% 29.87 1012.1
02 02:55 Calm 10.00 Mostly Cloudy BKN032 55 48 77% 29.86 1011.8
02 01:55 SW 6 10.00 Overcast BKN035 BKN046 OVC200 56.3 47.3 59.7 55.9 72% 29.89 1012.8
02 00:55 SW 6 10.00 Partly Cloudy SCT200 56.1 45.7 68% 29.9 1013.2
Date Time (edt) Wind (mph) Vis. (mi.) Weather Sky Cond. Air Dwpt Max. Min. Relative Humidity Wind Chill (°F) Heat Index (°F) altimeter (in) sea level (mb) 1 hr 3 hr 6 hr
6 hour
Temperature (ºF) Pressure Precipitation (in)